createdAt,value
2019-01-19T00:00:49.927Z,1007.46
2019-01-19T00:01:49.948Z,1007.48
2019-01-19T00:02:49.967Z,1007.49
2019-01-19T00:03:49.988Z,1007.49
2019-01-19T00:04:50.009Z,1007.49
2019-01-19T00:05:50.030Z,1007.51
2019-01-19T00:06:50.049Z,1007.51
2019-01-19T00:07:50.070Z,1007.53
2019-01-19T00:08:50.091Z,1007.49
2019-01-19T00:09:50.114Z,1007.51
2019-01-19T00:10:50.130Z,1007.51
2019-01-19T00:11:50.155Z,1007.52
2019-01-19T00:12:50.174Z,1007.55
2019-01-19T00:13:50.194Z,1007.55
2019-01-19T00:14:50.213Z,1007.55
2019-01-19T00:15:50.246Z,1007.54
2019-01-19T00:16:50.254Z,1007.55
2019-01-19T00:17:50.282Z,1007.56
2019-01-19T00:18:50.294Z,1007.55
2019-01-19T00:19:50.316Z,1007.63
2019-01-19T00:20:50.339Z,1007.64
2019-01-19T00:21:50.360Z,1007.64
2019-01-19T00:22:50.375Z,1007.67
2019-01-19T00:23:50.395Z,1007.69
2019-01-19T00:24:50.417Z,1007.70
2019-01-19T00:25:50.440Z,1007.69
2019-01-19T00:26:50.456Z,1007.78
2019-01-19T00:27:50.481Z,1007.77
2019-01-19T00:28:50.499Z,1007.75
2019-01-19T00:29:50.523Z,1007.76
2019-01-19T00:30:50.539Z,1007.78
2019-01-19T00:31:50.559Z,1007.77
2019-01-19T00:32:50.581Z,1007.76
2019-01-19T00:33:50.619Z,1007.76
2019-01-19T00:34:50.621Z,1007.75
2019-01-19T00:35:50.638Z,1007.77
2019-01-19T00:36:50.663Z,1007.78
2019-01-19T00:37:50.680Z,1007.80
2019-01-19T00:38:50.699Z,1007.80
2019-01-19T00:39:50.718Z,1007.78
2019-01-19T00:40:50.740Z,1007.79
2019-01-19T00:41:50.761Z,1007.87
2019-01-19T00:42:50.781Z,1007.84
2019-01-19T00:43:50.800Z,1007.82
2019-01-19T00:44:50.820Z,1007.83
2019-01-19T00:45:50.839Z,1007.83
2019-01-19T00:46:50.861Z,1007.82
2019-01-19T00:47:50.881Z,1007.89
2019-01-19T00:48:50.901Z,1007.86
2019-01-19T00:49:50.919Z,1007.86
2019-01-19T00:50:50.939Z,1007.87
2019-01-19T00:51:50.959Z,1007.88
2019-01-19T00:52:50.978Z,1007.88
2019-01-19T00:53:51.000Z,1007.90
2019-01-19T00:54:51.018Z,1007.90
2019-01-19T00:55:51.039Z,1007.92
2019-01-19T00:56:51.058Z,1007.99
2019-01-19T00:57:51.078Z,1007.94
2019-01-19T00:58:51.097Z,1007.96
2019-01-19T00:59:51.118Z,1007.96
2019-01-19T01:00:51.140Z,1007.94
2019-01-19T01:01:51.156Z,1007.95
2019-01-19T01:02:51.178Z,1007.97
2019-01-19T01:03:51.197Z,1007.96
2019-01-19T01:04:51.220Z,1008.01
2019-01-19T01:05:51.237Z,1008.02
2019-01-19T01:06:51.254Z,1008.06
2019-01-19T01:07:51.276Z,1008.05
2019-01-19T01:08:51.294Z,1008.07
2019-01-19T01:09:51.316Z,1008.09
2019-01-19T01:10:51.334Z,1008.07
2019-01-19T01:11:51.355Z,1008.09
2019-01-19T01:12:51.376Z,1008.10
2019-01-19T01:13:51.392Z,1008.16
2019-01-19T01:14:51.412Z,1008.12
2019-01-19T01:15:51.430Z,1008.16
2019-01-19T01:16:51.450Z,1008.15
2019-01-19T01:17:51.478Z,1008.15
2019-01-19T01:18:51.491Z,1008.18
2019-01-19T01:19:51.509Z,1008.18
2019-01-19T01:20:51.530Z,1008.22
2019-01-19T01:21:51.556Z,1008.21
2019-01-19T01:22:51.569Z,1008.22
2019-01-19T01:23:51.585Z,1008.25
2019-01-19T01:24:51.606Z,1008.29
2019-01-19T01:25:51.627Z,1008.28
2019-01-19T01:26:51.644Z,1008.27
2019-01-19T01:27:51.667Z,1008.30
2019-01-19T01:28:51.683Z,1008.31
2019-01-19T01:29:51.704Z,1008.31
2019-01-19T01:30:51.722Z,1008.34
2019-01-19T01:31:51.742Z,1008.34
2019-01-19T01:32:51.764Z,1008.36
2019-01-19T01:33:51.784Z,1008.32
2019-01-19T01:34:51.802Z,1008.36
2019-01-19T01:35:51.820Z,1008.37
2019-01-19T01:36:51.839Z,1008.37
2019-01-19T01:37:51.857Z,1008.41
2019-01-19T01:38:51.880Z,1008.42
2019-01-19T01:39:51.898Z,1008.42
2019-01-19T01:40:51.915Z,1008.47
2019-01-19T01:41:51.939Z,1008.43
2019-01-19T01:42:51.953Z,1008.42
2019-01-19T01:43:51.972Z,1008.47
2019-01-19T01:44:51.992Z,1008.44
2019-01-19T01:45:52.013Z,1008.44
2019-01-19T01:46:52.030Z,1008.48
2019-01-19T01:47:52.054Z,1008.46
2019-01-19T01:48:52.069Z,1008.53
2019-01-19T01:49:52.088Z,1008.54
2019-01-19T01:50:52.110Z,1008.46
2019-01-19T01:51:52.128Z,1008.54
2019-01-19T01:52:52.150Z,1008.53
2019-01-19T01:53:52.166Z,1008.55
2019-01-19T01:54:52.185Z,1008.58
2019-01-19T01:55:52.205Z,1008.58
2019-01-19T01:56:52.224Z,1008.56
2019-01-19T01:57:52.243Z,1008.57
2019-01-19T01:58:52.264Z,1008.57
2019-01-19T01:59:52.282Z,1008.61
2019-01-19T02:00:52.305Z,1008.60
2019-01-19T02:01:52.323Z,1008.62
2019-01-19T02:02:52.340Z,1008.63
2019-01-19T02:03:52.357Z,1008.63
2019-01-19T02:04:52.377Z,1008.69
2019-01-19T02:05:52.399Z,1008.68
2019-01-19T02:06:52.415Z,1008.68
2019-01-19T02:07:52.434Z,1008.68
2019-01-19T02:08:52.453Z,1008.73
2019-01-19T02:09:52.474Z,1008.71
2019-01-19T02:10:52.492Z,1008.71
2019-01-19T02:11:52.512Z,1008.75
2019-01-19T02:12:52.531Z,1008.72
2019-01-19T02:13:52.551Z,1008.72
2019-01-19T02:14:52.571Z,1008.75
2019-01-19T02:15:52.586Z,1008.73
2019-01-19T02:16:52.605Z,1008.77
2019-01-19T02:17:52.627Z,1008.77
2019-01-19T02:18:52.648Z,1008.78
2019-01-19T02:19:52.669Z,1008.77
2019-01-19T02:20:52.684Z,1008.81
2019-01-19T02:21:52.708Z,1008.80
2019-01-19T02:22:52.720Z,1008.78
2019-01-19T02:23:52.739Z,1008.77
2019-01-19T02:24:52.758Z,1008.79
2019-01-19T02:25:52.781Z,1008.80
2019-01-19T02:26:52.799Z,1008.81
2019-01-19T02:27:52.815Z,1008.83
2019-01-19T02:28:52.835Z,1008.79
2019-01-19T02:29:52.856Z,1008.80
2019-01-19T02:30:52.877Z,1008.81
2019-01-19T02:31:52.891Z,1008.77
2019-01-19T02:32:52.913Z,1008.79
2019-01-19T02:33:52.929Z,1008.77
2019-01-19T02:34:52.948Z,1008.81
2019-01-19T02:35:52.968Z,1008.82
2019-01-19T02:36:52.993Z,1008.77
2019-01-19T02:37:53.005Z,1008.74
2019-01-19T02:38:53.026Z,1008.84
2019-01-19T02:39:53.046Z,1008.80
2019-01-19T02:40:53.061Z,1008.77
2019-01-19T02:41:53.081Z,1008.78
2019-01-19T02:42:53.099Z,1008.77
2019-01-19T02:43:53.119Z,1008.81
2019-01-19T02:44:53.138Z,1008.79
2019-01-19T02:45:53.156Z,1008.75
2019-01-19T02:46:53.175Z,1008.74
2019-01-19T02:47:53.193Z,1008.74
2019-01-19T02:48:53.212Z,1008.79
2019-01-19T02:49:53.233Z,1008.80
2019-01-19T02:50:53.269Z,1008.86
2019-01-19T02:51:53.270Z,1008.83
2019-01-19T02:52:53.291Z,1008.86
2019-01-19T02:53:53.309Z,1008.89
2019-01-19T02:54:53.325Z,1008.84
2019-01-19T02:55:53.346Z,1008.86
2019-01-19T02:56:53.363Z,1008.90
2019-01-19T02:57:53.384Z,1008.89
2019-01-19T02:58:53.401Z,1008.92
2019-01-19T02:59:53.419Z,1008.91
2019-01-19T03:00:53.437Z,1008.92
2019-01-19T03:01:53.458Z,1008.93
2019-01-19T03:02:53.481Z,1008.94
2019-01-19T03:03:53.494Z,1008.93
2019-01-19T03:04:53.513Z,1008.96
2019-01-19T03:05:56.247Z,1008.94
2019-01-19T03:06:53.551Z,1008.95
2019-01-19T03:07:53.572Z,1008.94
2019-01-19T03:08:53.589Z,1008.93
2019-01-19T03:09:53.607Z,1008.94
2019-01-19T03:10:53.623Z,1008.92
2019-01-19T03:11:53.646Z,1008.94
2019-01-19T03:12:53.666Z,1008.93
2019-01-19T03:13:53.681Z,1008.91
2019-01-19T03:14:53.699Z,1008.96
2019-01-19T03:15:53.720Z,1009.02
2019-01-19T03:16:53.736Z,1009.00
2019-01-19T03:17:53.756Z,1008.98
2019-01-19T03:18:53.773Z,1008.96
2019-01-19T03:19:53.793Z,1008.99
2019-01-19T03:20:53.812Z,1009.02
2019-01-19T03:21:53.830Z,1009.02
2019-01-19T03:22:53.876Z,1009.03
2019-01-19T03:23:53.867Z,1009.06
2019-01-19T03:24:53.889Z,1009.09
2019-01-19T03:25:53.904Z,1009.07
2019-01-19T03:26:53.925Z,1009.12
2019-01-19T03:27:53.943Z,1009.10
2019-01-19T03:28:53.967Z,1009.14
2019-01-19T03:29:53.982Z,1009.11
2019-01-19T03:30:54.008Z,1009.11
2019-01-19T03:31:54.020Z,1009.14
2019-01-19T03:32:54.043Z,1009.14
2019-01-19T03:33:54.112Z,1009.15
2019-01-19T03:34:54.072Z,1009.12
2019-01-19T03:35:54.092Z,1009.18
2019-01-19T03:36:54.110Z,1009.18
2019-01-19T03:37:54.131Z,1009.16
2019-01-19T03:38:54.145Z,1009.16
2019-01-19T03:39:54.165Z,1009.17
2019-01-19T03:40:54.185Z,1009.20
2019-01-19T03:41:54.203Z,1009.16
2019-01-19T03:42:54.221Z,1009.19
2019-01-19T03:43:54.240Z,1009.20
2019-01-19T03:44:54.259Z,1009.23
2019-01-19T03:45:54.360Z,1009.25
2019-01-19T03:46:54.296Z,1009.20
2019-01-19T03:47:54.316Z,1009.18
2019-01-19T03:48:54.335Z,1009.23
2019-01-19T03:49:54.356Z,1009.23
2019-01-19T03:50:54.368Z,1009.23
2019-01-19T03:51:54.389Z,1009.26
2019-01-19T03:52:54.408Z,1009.29
2019-01-19T03:53:54.424Z,1009.30
2019-01-19T03:54:54.445Z,1009.30
2019-01-19T03:55:54.461Z,1009.34
2019-01-19T03:56:54.482Z,1009.32
2019-01-19T03:57:54.499Z,1009.35
2019-01-19T03:58:54.516Z,1009.38
2019-01-19T03:59:54.539Z,1009.37
2019-01-19T04:00:54.557Z,1009.35
2019-01-19T04:01:54.573Z,1009.33
2019-01-19T04:02:54.593Z,1009.36
2019-01-19T04:03:54.610Z,1009.42
2019-01-19T04:04:54.630Z,1009.38
2019-01-19T04:05:54.647Z,1009.43
2019-01-19T04:06:54.665Z,1009.44
2019-01-19T04:07:54.688Z,1009.44
2019-01-19T04:08:54.705Z,1009.44
2019-01-19T04:09:54.734Z,1009.48
2019-01-19T04:10:54.740Z,1009.50
2019-01-19T04:11:54.758Z,1009.47
2019-01-19T04:12:54.778Z,1009.45
2019-01-19T04:13:54.796Z,1009.47
2019-01-19T04:14:54.819Z,1009.47
2019-01-19T04:15:54.851Z,1009.50
2019-01-19T04:16:54.853Z,1009.50
2019-01-19T04:17:54.873Z,1009.53
2019-01-19T04:18:54.888Z,1009.51
2019-01-19T04:19:54.908Z,1009.50
2019-01-19T04:20:54.928Z,1009.51
2019-01-19T04:21:54.945Z,1009.52
2019-01-19T04:22:54.963Z,1009.49
2019-01-19T04:23:54.980Z,1009.50
2019-01-19T04:24:55.003Z,1009.49
2019-01-19T04:25:55.023Z,1009.52
2019-01-19T04:26:55.038Z,1009.55
2019-01-19T04:27:55.057Z,1009.53
2019-01-19T04:28:55.076Z,1009.56
2019-01-19T04:29:55.094Z,1009.58
2019-01-19T04:30:55.113Z,1009.54
2019-01-19T04:31:55.130Z,1009.56
2019-01-19T04:32:55.149Z,1009.58
2019-01-19T04:33:55.169Z,1009.60
2019-01-19T04:34:55.183Z,1009.61
2019-01-19T04:35:55.202Z,1009.63
2019-01-19T04:36:55.221Z,1009.61
2019-01-19T04:37:55.241Z,1009.63
2019-01-19T04:38:55.263Z,1009.61
2019-01-19T04:39:55.279Z,1009.63
2019-01-19T04:40:55.301Z,1009.63
2019-01-19T04:41:55.314Z,1009.62
2019-01-19T04:42:55.329Z,1009.64
2019-01-19T04:43:55.350Z,1009.64
2019-01-19T04:44:55.369Z,1009.67
2019-01-19T04:45:55.399Z,1009.69
2019-01-19T04:46:55.405Z,1009.66
2019-01-19T04:47:55.423Z,1009.70
2019-01-19T04:48:55.442Z,1009.72
2019-01-19T04:49:55.458Z,1009.72
2019-01-19T04:50:55.475Z,1009.76
2019-01-19T04:51:55.500Z,1009.77
2019-01-19T04:52:55.513Z,1009.72
2019-01-19T04:53:55.535Z,1009.78
2019-01-19T04:54:55.557Z,1009.77
2019-01-19T04:55:55.566Z,1009.82
2019-01-19T04:56:55.593Z,1009.79
2019-01-19T04:57:55.612Z,1009.83
2019-01-19T04:58:55.624Z,1009.78
2019-01-19T04:59:55.639Z,1009.82
2019-01-19T05:00:55.659Z,1009.80
2019-01-19T05:01:55.681Z,1009.80
2019-01-19T05:02:55.693Z,1009.85
2019-01-19T05:03:55.744Z,1009.84
2019-01-19T05:04:55.728Z,1009.81
2019-01-19T05:05:55.746Z,1009.82
2019-01-19T05:06:55.767Z,1009.83
2019-01-19T05:07:55.781Z,1009.86
2019-01-19T05:08:55.800Z,1009.82
2019-01-19T05:09:55.817Z,1009.81
2019-01-19T05:10:55.835Z,1009.82
2019-01-19T05:11:55.854Z,1009.83
2019-01-19T05:12:55.878Z,1009.83
2019-01-19T05:13:55.893Z,1009.88
2019-01-19T05:14:55.906Z,1009.83
2019-01-19T05:15:55.935Z,1009.85
2019-01-19T05:16:55.945Z,1009.80
2019-01-19T05:17:55.964Z,1009.83
2019-01-19T05:18:55.978Z,1009.82
2019-01-19T05:19:55.995Z,1009.81
2019-01-19T05:20:56.013Z,1009.85
2019-01-19T05:21:56.031Z,1009.84
2019-01-19T05:22:56.048Z,1009.82
2019-01-19T05:23:56.067Z,1009.87
2019-01-19T05:24:56.084Z,1009.85
2019-01-19T05:25:56.100Z,1009.90
2019-01-19T05:26:56.119Z,1009.87
2019-01-19T05:27:56.138Z,1009.85
2019-01-19T05:28:56.157Z,1009.91
2019-01-19T05:29:56.172Z,1009.86
2019-01-19T05:30:56.190Z,1009.89
2019-01-19T05:31:56.211Z,1009.91
2019-01-19T05:32:56.225Z,1009.94
2019-01-19T05:33:56.245Z,1009.89
2019-01-19T05:34:56.259Z,1009.86
2019-01-19T05:35:56.295Z,1009.93
2019-01-19T05:36:56.299Z,1009.92
2019-01-19T05:37:56.315Z,1009.93
2019-01-19T05:38:56.331Z,1009.97
2019-01-19T05:39:56.349Z,1009.97
2019-01-19T05:40:56.364Z,1010.01
2019-01-19T05:41:56.385Z,1010.01
2019-01-19T05:42:56.403Z,1009.98
2019-01-19T05:43:56.423Z,1010.01
2019-01-19T05:44:56.437Z,1010.00
2019-01-19T05:45:56.453Z,1010.03
2019-01-19T05:46:56.469Z,1010.02
2019-01-19T05:47:56.487Z,1010.04
2019-01-19T05:48:56.504Z,1010.05
2019-01-19T05:49:56.523Z,1010.02
2019-01-19T05:50:56.539Z,1010.02
2019-01-19T05:51:56.564Z,1010.02
2019-01-19T05:52:56.573Z,1010.03
2019-01-19T05:53:56.599Z,1010.06
2019-01-19T05:54:56.612Z,1010.05
2019-01-19T05:55:56.627Z,1010.05
2019-01-19T05:56:56.645Z,1010.12
2019-01-19T05:57:56.663Z,1010.13
2019-01-19T05:58:56.680Z,1010.11
2019-01-19T05:59:56.698Z,1010.12
2019-01-19T06:00:56.715Z,1010.09
2019-01-19T06:01:56.733Z,1010.12
2019-01-19T06:02:56.750Z,1010.13
2019-01-19T06:03:56.766Z,1010.13
2019-01-19T06:04:56.788Z,1010.10
2019-01-19T06:05:56.817Z,1010.11
2019-01-19T06:06:56.818Z,1010.11
2019-01-19T06:07:56.838Z,1010.10
2019-01-19T06:08:56.855Z,1010.07
2019-01-19T06:09:56.871Z,1010.09
2019-01-19T06:10:56.888Z,1010.11
2019-01-19T06:11:56.908Z,1010.13
2019-01-19T06:12:56.924Z,1010.09
2019-01-19T06:13:56.942Z,1010.13
2019-01-19T06:14:56.960Z,1010.18
2019-01-19T06:15:56.976Z,1010.15
2019-01-19T06:16:56.996Z,1010.17
2019-01-19T06:17:57.018Z,1010.13
2019-01-19T06:18:57.028Z,1010.17
2019-01-19T06:19:57.048Z,1010.16
2019-01-19T06:20:57.063Z,1010.18
2019-01-19T06:21:57.080Z,1010.22
2019-01-19T06:22:57.098Z,1010.20
2019-01-19T06:23:57.116Z,1010.23
2019-01-19T06:24:57.134Z,1010.22
2019-01-19T06:25:57.161Z,1010.26
2019-01-19T06:26:57.167Z,1010.23
2019-01-19T06:27:57.185Z,1010.27
2019-01-19T06:28:57.203Z,1010.31
2019-01-19T06:29:57.225Z,1010.28
2019-01-19T06:30:57.238Z,1010.31
2019-01-19T06:31:57.255Z,1010.26
2019-01-19T06:32:57.271Z,1010.26
2019-01-19T06:33:57.290Z,1010.27
2019-01-19T06:34:57.307Z,1010.33
2019-01-19T06:35:57.327Z,1010.33
2019-01-19T06:36:57.343Z,1010.39
2019-01-19T06:37:57.372Z,1010.39
2019-01-19T06:38:57.384Z,1010.39
2019-01-19T06:39:57.397Z,1010.42
2019-01-19T06:40:57.410Z,1010.40
2019-01-19T06:41:57.429Z,1010.37
2019-01-19T06:42:57.445Z,1010.35
2019-01-19T06:43:57.464Z,1010.39
2019-01-19T06:44:57.483Z,1010.47
2019-01-19T06:45:57.499Z,1010.43
2019-01-19T06:46:57.521Z,1010.46
2019-01-19T06:47:57.534Z,1010.50
2019-01-19T06:48:57.554Z,1010.50
2019-01-19T06:49:57.567Z,1010.53
2019-01-19T06:50:57.585Z,1010.50
2019-01-19T06:51:57.606Z,1010.54
2019-01-19T06:52:57.621Z,1010.55
2019-01-19T06:54:01.742Z,1010.62
2019-01-19T06:54:57.655Z,1010.61
2019-01-19T06:55:57.671Z,1010.64
2019-01-19T06:56:57.690Z,1010.66
2019-01-19T06:57:57.714Z,1010.63
2019-01-19T06:58:57.722Z,1010.69
2019-01-19T06:59:57.741Z,1010.69
2019-01-19T07:00:57.763Z,1010.70
2019-01-19T07:01:57.779Z,1010.68
2019-01-19T07:02:57.794Z,1010.73
2019-01-19T07:03:57.810Z,1010.69
2019-01-19T07:04:57.829Z,1010.76
2019-01-19T07:05:57.844Z,1010.77
2019-01-19T07:07:02.670Z,1010.80
2019-01-19T07:07:57.882Z,1010.83
2019-01-19T07:08:57.902Z,1010.81
2019-01-19T07:09:57.915Z,1010.89
2019-01-19T07:10:57.937Z,1010.84
2019-01-19T07:11:57.951Z,1010.92
2019-01-19T07:12:57.970Z,1010.94
2019-01-19T07:13:59.094Z,1010.92
2019-01-19T07:14:58.001Z,1010.94
2019-01-19T07:15:58.021Z,1010.94
2019-01-19T07:16:58.038Z,1010.97
2019-01-19T07:17:58.056Z,1010.99
2019-01-19T07:18:58.073Z,1010.99
2019-01-19T07:19:58.091Z,1011.01
2019-01-19T07:20:58.109Z,1011.03
2019-01-19T07:21:58.127Z,1011.10
2019-01-19T07:22:58.146Z,1011.08
2019-01-19T07:23:58.162Z,1011.11
2019-01-19T07:24:58.181Z,1011.11
2019-01-19T07:25:58.199Z,1011.08
2019-01-19T07:26:58.217Z,1011.10
2019-01-19T07:27:58.238Z,1011.06
2019-01-19T07:28:58.258Z,1011.07
2019-01-19T07:29:58.276Z,1011.07
2019-01-19T07:30:58.290Z,1011.09
2019-01-19T07:31:58.311Z,1011.06
2019-01-19T07:32:58.329Z,1011.13
2019-01-19T07:33:58.348Z,1011.14
2019-01-19T07:34:58.370Z,1011.17
2019-01-19T07:35:58.387Z,1011.21
2019-01-19T07:36:58.407Z,1011.20
2019-01-19T07:37:58.426Z,1011.23
2019-01-19T07:38:58.440Z,1011.21
2019-01-19T07:39:58.464Z,1011.27
2019-01-19T07:40:58.482Z,1011.26
2019-01-19T07:41:58.499Z,1011.32
2019-01-19T07:42:58.518Z,1011.33
2019-01-19T07:43:58.539Z,1011.27
2019-01-19T07:44:58.556Z,1011.26
2019-01-19T07:45:58.576Z,1011.32
2019-01-19T07:46:58.594Z,1011.34
2019-01-19T07:47:58.613Z,1011.37
2019-01-19T07:48:58.632Z,1011.43
2019-01-19T07:49:58.652Z,1011.41
2019-01-19T07:50:58.672Z,1011.41
2019-01-19T07:51:58.691Z,1011.41
2019-01-19T07:52:58.716Z,1011.42
2019-01-19T07:53:58.731Z,1011.41
2019-01-19T07:54:58.757Z,1011.43
2019-01-19T07:55:58.770Z,1011.49
2019-01-19T07:56:58.793Z,1011.50
2019-01-19T07:57:58.815Z,1011.50
2019-01-19T07:58:58.828Z,1011.50
2019-01-19T07:59:58.846Z,1011.52
2019-01-19T08:00:58.866Z,1011.51
2019-01-19T08:01:58.886Z,1011.55
2019-01-19T08:02:58.906Z,1011.53
2019-01-19T08:03:58.924Z,1011.54
2019-01-19T08:04:58.948Z,1011.58
2019-01-19T08:05:58.965Z,1011.61
2019-01-19T08:06:58.981Z,1011.60
2019-01-19T08:07:59.002Z,1011.61
2019-01-19T08:08:59.022Z,1011.68
2019-01-19T08:09:59.043Z,1011.64
2019-01-19T08:10:59.061Z,1011.68
2019-01-19T08:11:59.086Z,1011.73
2019-01-19T08:12:59.101Z,1011.73
2019-01-19T08:13:59.124Z,1011.75
2019-01-19T08:14:59.139Z,1011.73
2019-01-19T08:15:59.163Z,1011.75
2019-01-19T08:16:59.183Z,1011.72
2019-01-19T08:17:59.203Z,1011.74
2019-01-19T08:18:59.222Z,1011.71
2019-01-19T08:19:59.238Z,1011.75
2019-01-19T08:20:59.261Z,1011.74
2019-01-19T08:21:59.278Z,1011.71
2019-01-19T08:22:59.301Z,1011.72
2019-01-19T08:23:59.319Z,1011.78
2019-01-19T08:24:59.338Z,1011.80
2019-01-19T08:25:59.404Z,1011.78
2019-01-19T08:26:59.377Z,1011.85
2019-01-19T08:27:59.397Z,1011.89
2019-01-19T08:28:59.417Z,1011.82
2019-01-19T08:29:59.439Z,1011.92
2019-01-19T08:30:59.458Z,1011.94
2019-01-19T08:31:59.479Z,1011.96
2019-01-19T08:32:59.508Z,1011.97
2019-01-19T08:33:59.520Z,1011.97
2019-01-19T08:34:59.542Z,1011.94
2019-01-19T08:35:59.560Z,1011.98
2019-01-19T08:36:59.583Z,1011.99
2019-01-19T08:37:59.606Z,1012.00
2019-01-19T08:38:59.628Z,1012.02
2019-01-19T08:39:59.649Z,1011.99
2019-01-19T08:40:59.669Z,1012.02
2019-01-19T08:41:59.696Z,1011.99
2019-01-19T08:42:59.716Z,1011.98
2019-01-19T08:43:59.737Z,1011.96
2019-01-19T08:44:59.761Z,1011.99
2019-01-19T08:45:59.783Z,1012.00
2019-01-19T08:46:59.806Z,1011.97
2019-01-19T08:47:59.829Z,1011.97
2019-01-19T08:48:59.853Z,1011.96
2019-01-19T08:49:59.880Z,1011.95
2019-01-19T08:50:59.904Z,1011.95
2019-01-19T08:51:59.929Z,1011.97
2019-01-19T08:52:59.949Z,1011.95
2019-01-19T08:53:59.973Z,1011.93
2019-01-19T08:54:59.998Z,1011.89
2019-01-19T08:56:00.020Z,1011.89
2019-01-19T08:57:00.048Z,1011.89
2019-01-19T08:58:00.073Z,1011.87
2019-01-19T08:59:00.097Z,1011.93
2019-01-19T09:00:00.148Z,1011.94
2019-01-19T09:01:00.146Z,1011.94
2019-01-19T09:02:00.169Z,1011.94
2019-01-19T09:03:00.192Z,1011.90
2019-01-19T09:04:00.219Z,1011.95
2019-01-19T09:05:00.293Z,1011.93
2019-01-19T09:06:00.269Z,1011.92
2019-01-19T09:07:00.292Z,1011.90
2019-01-19T09:08:00.317Z,1011.86
2019-01-19T09:09:00.343Z,1011.89
2019-01-19T09:10:00.369Z,1011.90
2019-01-19T09:11:00.396Z,1011.85
2019-01-19T09:12:00.422Z,1011.90
2019-01-19T09:13:00.449Z,1011.89
2019-01-19T09:14:00.471Z,1011.88
2019-01-19T09:15:00.497Z,1011.88
2019-01-19T09:16:00.526Z,1011.88
2019-01-19T09:17:00.549Z,1011.93
2019-01-19T09:18:00.575Z,1011.87
2019-01-19T09:19:00.604Z,1011.89
2019-01-19T09:20:00.630Z,1011.95
2019-01-19T09:21:00.653Z,1011.97
2019-01-19T09:22:00.681Z,1012.00
2019-01-19T09:23:00.710Z,1012.00
2019-01-19T09:24:00.733Z,1012.02
2019-01-19T09:25:00.773Z,1011.98
2019-01-19T09:26:00.784Z,1011.98
2019-01-19T09:27:00.812Z,1011.99
2019-01-19T09:28:00.841Z,1011.96
2019-01-19T09:29:00.864Z,1011.97
2019-01-19T09:30:00.892Z,1011.97
2019-01-19T09:31:00.919Z,1012.01
2019-01-19T09:32:00.944Z,1012.02
2019-01-19T09:33:00.973Z,1012.02
2019-01-19T09:34:00.998Z,1012.03
2019-01-19T09:35:01.028Z,1012.06
2019-01-19T09:36:01.055Z,1012.01
2019-01-19T09:37:01.084Z,1012.06
2019-01-19T09:38:01.106Z,1012.08
2019-01-19T09:39:01.131Z,1012.08
2019-01-19T09:40:01.158Z,1012.11
2019-01-19T09:41:01.190Z,1012.12
2019-01-19T09:42:01.217Z,1012.13
2019-01-19T09:43:01.238Z,1012.14
2019-01-19T09:44:01.265Z,1012.11
2019-01-19T09:45:01.296Z,1012.15
2019-01-19T09:46:01.355Z,1012.14
2019-01-19T09:47:01.349Z,1012.15
2019-01-19T09:48:01.372Z,1012.10
2019-01-19T09:49:01.399Z,1012.08
2019-01-19T09:50:01.528Z,1012.07
2019-01-19T09:51:01.452Z,1012.09
2019-01-19T09:52:01.508Z,1012.06
2019-01-19T09:53:01.506Z,1012.08
2019-01-19T09:54:01.534Z,1012.09
2019-01-19T09:55:01.561Z,1012.10
2019-01-19T09:56:01.592Z,1012.12
2019-01-19T09:57:01.615Z,1012.09
2019-01-19T09:58:01.650Z,1012.11
2019-01-19T09:59:01.669Z,1012.10
2019-01-19T10:00:01.698Z,1012.14
2019-01-19T10:01:01.721Z,1012.16
2019-01-19T10:02:01.749Z,1012.13
2019-01-19T10:03:01.776Z,1012.14
2019-01-19T10:04:01.806Z,1012.16
2019-01-19T10:05:01.833Z,1012.14
2019-01-19T10:06:01.859Z,1012.13
2019-01-19T10:07:01.888Z,1012.16
2019-01-19T10:08:01.913Z,1012.16
2019-01-19T10:09:01.939Z,1012.16
2019-01-19T10:10:01.967Z,1012.22
2019-01-19T10:11:01.993Z,1012.20
2019-01-19T10:12:02.024Z,1012.26
2019-01-19T10:13:02.049Z,1012.26
2019-01-19T10:14:02.079Z,1012.24
2019-01-19T10:15:02.104Z,1012.25
2019-01-19T10:16:02.130Z,1012.27
2019-01-19T10:17:02.157Z,1012.23
2019-01-19T10:18:02.185Z,1012.25
2019-01-19T10:19:02.213Z,1012.22
2019-01-19T10:20:02.243Z,1012.26
2019-01-19T10:21:02.270Z,1012.24
2019-01-19T10:22:02.297Z,1012.23
2019-01-19T10:23:02.324Z,1012.23
2019-01-19T10:24:02.350Z,1012.22
2019-01-19T10:25:02.377Z,1012.22
2019-01-19T10:26:02.408Z,1012.22
2019-01-19T10:27:02.431Z,1012.20
2019-01-19T10:28:02.459Z,1012.20
2019-01-19T10:29:02.486Z,1012.21
2019-01-19T10:30:02.517Z,1012.19
2019-01-19T10:31:02.541Z,1012.23
2019-01-19T10:32:02.575Z,1012.19
2019-01-19T10:33:02.598Z,1012.22
2019-01-19T10:34:02.624Z,1012.21
2019-01-19T10:35:02.651Z,1012.20
2019-01-19T10:36:02.684Z,1012.20
2019-01-19T10:37:02.707Z,1012.22
2019-01-19T10:38:02.737Z,1012.26
2019-01-19T10:39:02.762Z,1012.20
2019-01-19T10:40:02.791Z,1012.20
2019-01-19T10:41:02.822Z,1012.21
2019-01-19T10:42:03.169Z,1012.19
2019-01-19T10:43:02.872Z,1012.20
2019-01-19T10:44:02.900Z,1012.14
2019-01-19T10:45:02.937Z,1012.16
2019-01-19T10:46:02.956Z,1012.17
2019-01-19T10:47:02.984Z,1012.15
2019-01-19T10:48:03.009Z,1012.17
2019-01-19T10:49:03.040Z,1012.14
2019-01-19T10:50:03.066Z,1012.11
2019-01-19T10:51:03.100Z,1012.18
2019-01-19T10:52:03.118Z,1012.12
2019-01-19T10:53:03.145Z,1012.16
2019-01-19T10:54:03.176Z,1012.12
2019-01-19T10:55:03.201Z,1012.17
2019-01-19T10:56:03.227Z,1012.14
2019-01-19T10:57:03.258Z,1012.12
2019-01-19T10:58:03.283Z,1012.17
2019-01-19T10:59:03.307Z,1012.16
2019-01-19T11:00:03.336Z,1012.24
2019-01-19T11:01:03.362Z,1012.23
2019-01-19T11:02:03.388Z,1012.17
2019-01-19T11:03:03.416Z,1012.20
2019-01-19T11:04:03.443Z,1012.22
2019-01-19T11:05:03.473Z,1012.22
2019-01-19T11:06:03.499Z,1012.26
2019-01-19T11:07:03.527Z,1012.28
2019-01-19T11:08:04.207Z,1012.23
2019-01-19T11:09:03.577Z,1012.24
2019-01-19T11:10:03.608Z,1012.27
2019-01-19T11:11:03.631Z,1012.22
2019-01-19T11:12:03.656Z,1012.22
2019-01-19T11:13:03.688Z,1012.21
2019-01-19T11:14:03.710Z,1012.20
2019-01-19T11:15:03.739Z,1012.18
2019-01-19T11:16:03.774Z,1012.21
2019-01-19T11:17:03.792Z,1012.20
2019-01-19T11:18:03.818Z,1012.25
2019-01-19T11:19:03.848Z,1012.25
2019-01-19T11:20:03.873Z,1012.22
2019-01-19T11:21:03.903Z,1012.25
2019-01-19T11:22:03.923Z,1012.18
2019-01-19T11:23:03.951Z,1012.18
2019-01-19T11:24:03.977Z,1012.17
2019-01-19T11:25:04.001Z,1012.19
2019-01-19T11:26:04.030Z,1012.17
2019-01-19T11:27:04.055Z,1012.21
2019-01-19T11:28:04.081Z,1012.17
2019-01-19T11:29:04.111Z,1012.20
2019-01-19T11:30:04.132Z,1012.22
2019-01-19T11:31:04.157Z,1012.29
2019-01-19T11:32:04.187Z,1012.31
2019-01-19T11:33:04.210Z,1012.31
2019-01-19T11:34:04.236Z,1012.31
2019-01-19T11:35:04.261Z,1012.29
2019-01-19T11:36:04.286Z,1012.29
2019-01-19T11:37:04.315Z,1012.27
2019-01-19T11:38:11.639Z,1012.34
2019-01-19T11:39:04.363Z,1012.28
2019-01-19T11:40:04.389Z,1012.21
2019-01-19T11:41:04.418Z,1012.31
2019-01-19T11:42:04.444Z,1012.28
2019-01-19T11:43:04.466Z,1012.23
2019-01-19T11:44:04.492Z,1012.18
2019-01-19T11:45:04.517Z,1012.21
2019-01-19T11:46:04.545Z,1012.22
2019-01-19T11:47:04.579Z,1012.16
2019-01-19T11:48:04.598Z,1012.19
2019-01-19T11:49:04.621Z,1012.15
2019-01-19T11:50:04.645Z,1012.14
2019-01-19T11:51:04.674Z,1012.10
2019-01-19T11:52:04.698Z,1012.14
2019-01-19T11:53:04.725Z,1012.13
2019-01-19T11:54:04.750Z,1012.05
2019-01-19T11:55:04.772Z,1012.04
2019-01-19T11:56:11.950Z,1012.05
2019-01-19T11:57:04.822Z,1012.01
2019-01-19T11:58:04.846Z,1011.97
2019-01-19T11:59:04.870Z,1012.08
2019-01-19T12:00:04.893Z,1012.05
2019-01-19T12:01:04.926Z,1012.00
2019-01-19T12:02:04.946Z,1012.03
2019-01-19T12:03:04.970Z,1012.00
2019-01-19T12:04:04.993Z,1012.00
2019-01-19T12:05:05.014Z,1011.99
2019-01-19T12:06:05.039Z,1011.94